Fredonia, North Dakota
Current Conditions -  °F | °C
As of 1:56 AM on Sunday 26 Oct 2014 (Local Time) from KJMS Reporting Station
Clear Clear  
Wind Chill: 34°   Ceiling: Unl
Heat Index: 39°   Visibility: 10mi
Dew Point: 29°   Wind: 7mph
Humidity: 67%   Direction: 140°SE
Pressure: 29.93"   Gusts: NA
Location:  46.33°N, 99.1°W
Report Text: KJMS 260656Z AUTO 14006KT 10SM CLR 04/M02 A2993 RMK AO2 SLP141 T00391017
Loading
Personal Weather Stations






























Interactive Weather Map
Tropical Storm Tracking
New forecast layout! Learn more

10-Day Weather Forecast

Advertisements
Track Severe Weather on mobile